Time;durP1;ratioP1;P1;durP2;ratioP2;P2;SDS_P1;SDS_P2;PMS_P1;PMS_P2;Temp;Humidity;BMP_temperature;BMP_pressure;BME280_temperature;BME280_humidity;BME280_pressure;Samples;Min_cycle;Max_cycle;Signal;HPM_P1;HPM_P2
2023/03/25 00:02:09;;;;;;;12.93;5.77;;;11.50;99.90;;;;;;4973791;28;20600;-65
2023/03/25 00:04:40;;;;;;;9.43;5.17;;;11.60;99.90;;;;;;4952037;28;20229;-65
2023/03/25 00:07:07;;;;;;;6.97;4.40;;;11.60;99.90;;;;;;4965469;28;20205;-64
2023/03/25 00:09:35;;;;;;;7.90;3.93;;;12.10;99.90;;;;;;4965444;28;20264;-64
2023/03/25 00:12:02;;;;;;;7.03;3.30;;;11.60;99.90;;;;;;4965813;28;20205;-66
2023/03/25 00:14:31;;;;;;;5.13;3.70;;;11.60;99.90;;;;;;4968722;28;20232;-64
2023/03/25 00:17:01;;;;;;;5.93;3.37;;;11.60;99.90;;;;;;4956669;28;20209;-64
2023/03/25 00:19:28;;;;;;;4.73;3.10;;;11.60;99.90;;;;;;4953185;28;20555;-65
2023/03/25 00:21:57;;;;;;;7.40;3.83;;;11.70;99.90;;;;;;4971436;28;20228;-65
2023/03/25 00:24:24;;;;;;;6.50;3.70;;;11.70;99.90;;;;;;4970010;28;20243;-66
2023/03/25 00:26:53;;;;;;;6.83;4.07;;;11.60;99.90;;;;;;4966113;28;20214;-64
2023/03/25 00:29:20;;;;;;;5.03;3.73;;;11.60;99.90;;;;;;4969283;28;20189;-65
2023/03/25 00:31:48;;;;;;;5.80;3.07;;;11.60;99.90;;;;;;4970265;28;20201;-65
2023/03/25 00:34:15;;;;;;;5.30;3.73;;;11.60;99.90;;;;;;4953881;28;20584;-64
2023/03/25 00:36:42;;;;;;;7.27;4.10;;;11.60;99.90;;;;;;4946988;28;20607;-64
2023/03/25 00:39:11;;;;;;;9.23;4.60;;;11.60;99.90;;;;;;4970936;28;20212;-65
2023/03/25 00:41:42;;;;;;;10.93;5.30;;;11.40;99.90;;;;;;4971931;28;20201;-65
2023/03/25 00:44:11;;;;;;;7.47;4.20;;;11.50;99.90;;;;;;4952720;28;20265;-65
2023/03/25 00:46:38;;;;;;;10.07;4.97;;;11.50;99.90;;;;;;4966393;28;20249;-65
2023/03/25 00:49:06;;;;;;;9.50;4.90;;;11.50;99.90;;;;;;4970210;28;20614;-66
2023/03/25 00:51:34;;;;;;;9.50;5.67;;;11.50;99.90;;;;;;4969577;28;20217;-64
2023/03/25 00:54:02;;;;;;;8.80;5.27;;;11.50;99.90;;;;;;4967760;28;20236;-65
2023/03/25 00:56:31;;;;;;;12.93;5.90;;;11.50;99.90;;;;;;4965072;28;20267;-66
2023/03/25 00:58:58;;;;;;;11.27;5.20;;;11.50;99.90;;;;;;4963094;28;20292;-65
2023/03/25 01:01:27;;;;;;;12.63;6.03;;;11.40;99.90;;;;;;4974104;28;20197;-65
2023/03/25 01:03:57;;;;;;;9.77;5.40;;;11.40;99.90;;;;;;4950133;28;20307;-64
2023/03/25 01:06:28;;;;;;;10.30;5.40;;;11.40;99.90;;;;;;4964871;28;20235;-65
2023/03/25 01:08:57;;;;;;;9.13;5.13;;;11.40;99.90;;;;;;4963686;28;20251;-65
2023/03/25 01:11:26;;;;;;;7.97;4.40;;;11.30;99.90;;;;;;4971397;28;20200;-64
2023/03/25 01:13:58;;;;;;;8.23;4.57;;;11.30;99.90;;;;;;4956505;28;20197;-64
2023/03/25 01:16:28;;;;;;;5.40;3.50;;;11.30;99.90;;;;;;4970588;28;20200;-66
2023/03/25 01:18:57;;;;;;;7.00;3.97;;;11.40;99.90;;;;;;4970973;28;20216;-65
2023/03/25 01:21:25;;;;;;;12.90;5.73;;;11.30;99.90;;;;;;4948595;28;20196;-65
2023/03/25 01:23:54;;;;;;;10.47;5.50;;;11.40;99.90;;;;;;4962724;28;20623;-65
2023/03/25 01:26:21;;;;;;;10.30;5.70;;;11.50;99.90;;;;;;4953825;28;20777;-66
2023/03/25 01:28:48;;;;;;;8.57;5.43;;;11.40;99.90;;;;;;4966441;28;20208;-65
2023/03/25 01:31:17;;;;;;;6.80;4.53;;;11.40;99.90;;;;;;4952342;28;20566;-65
2023/03/25 01:33:44;;;;;;;7.60;4.00;;;11.40;99.90;;;;;;4968305;28;20203;-66
2023/03/25 01:36:12;;;;;;;6.37;4.33;;;11.40;99.90;;;;;;4947953;28;20539;-65
2023/03/25 01:38:39;;;;;;;8.60;4.40;;;11.40;99.90;;;;;;4964770;28;20251;-64
2023/03/25 01:41:07;;;;;;;5.37;3.37;;;11.40;99.90;;;;;;4964289;28;20196;-66
2023/03/25 01:43:35;;;;;;;5.83;3.40;;;11.30;99.90;;;;;;4945945;28;20228;-66
2023/03/25 01:46:03;;;;;;;3.77;2.80;;;11.30;99.90;;;;;;4967490;28;20308;-65
2023/03/25 01:48:35;;;;;;;4.57;3.37;;;11.30;99.90;;;;;;4960503;28;20211;-67
2023/03/25 01:51:09;;;;;;;5.63;3.00;;;11.30;99.90;;;;;;4949154;28;20236;-64
2023/03/25 01:53:37;;;;;;;4.50;2.83;;;11.30;99.90;;;;;;4962053;28;20567;-66
2023/03/25 01:56:06;;;;;;;4.83;3.03;;;11.20;99.90;;;;;;4950616;28;20207;-65
2023/03/25 01:58:35;;;;;;;4.57;3.20;;;11.20;99.90;;;;;;4943646;29;20211;-65
2023/03/25 02:01:03;;;;;;;4.97;3.40;;;11.10;99.90;;;;;;4965629;28;20240;-65
2023/03/25 02:03:35;;;;;;;4.70;2.90;;;11.10;99.90;;;;;;4951101;28;20240;-65
2023/03/25 02:06:08;;;;;;;4.40;2.90;;;11.10;99.90;;;;;;4950039;28;20621;-65
2023/03/25 02:08:38;;;;;;;4.50;2.80;;;11.10;99.90;;;;;;4969137;28;20203;-66
2023/03/25 02:11:07;;;;;;;3.37;2.73;;;11.10;99.90;;;;;;4953396;28;20197;-65
2023/03/25 02:13:36;;;;;;;4.73;2.60;;;11.10;99.90;;;;;;4971489;28;20684;-65
2023/03/25 02:16:17;;;;;;;3.20;2.33;;;11.10;99.90;;;;;;4972193;28;20216;-65
2023/03/25 02:18:56;;;;;;;3.97;2.23;;;11.10;99.90;;;;;;4962714;28;20581;-64
2023/03/25 02:22:10;;;;;;;2.30;1.97;;;11.10;99.90;;;;;;4952274;29;20299;-64
2023/03/25 02:25:17;;;;;;;4.10;2.93;;;11.10;99.90;;;;;;4965755;28;20250;-66
2023/03/25 02:27:56;;;;;;;4.00;2.40;;;11.10;99.90;;;;;;4958586;28;20300;-65
2023/03/25 02:30:39;;;;;;;2.47;2.20;;;11.10;99.90;;;;;;4952963;28;20224;-65
2023/03/25 02:33:43;;;;;;;3.20;2.50;;;11.10;99.90;;;;;;4969694;28;20196;-66
2023/03/25 02:36:55;;;;;;;3.20;2.40;;;11.10;99.90;;;;;;4965813;28;20733;-65
2023/03/25 02:39:28;;;;;;;2.23;2.10;;;11.20;99.90;;;;;;4957476;28;20216;-65
2023/03/25 02:42:03;;;;;;;3.13;2.30;;;11.20;99.90;;;;;;4955737;28;20207;-65
2023/03/25 02:44:36;;;;;;;2.20;2.00;;;11.20;99.90;;;;;;4955934;28;20206;-65
2023/03/25 02:47:07;;;;;;;4.23;2.67;;;11.20;99.90;;;;;;4972630;28;20202;-66
2023/03/25 02:49:36;;;;;;;2.60;1.90;;;11.20;99.90;;;;;;4953035;28;20704;-65
2023/03/25 02:52:10;;;;;;;2.23;2.13;;;11.20;99.90;;;;;;4980751;28;20600;-66
2023/03/25 02:54:41;;;;;;;2.40;1.90;;;11.20;99.90;;;;;;4966186;28;20196;-64
2023/03/25 02:57:11;;;;;;;2.90;2.07;;;11.20;99.90;;;;;;4953895;28;20263;-64
2023/03/25 02:59:39;;;;;;;3.00;2.37;;;11.30;99.90;;;;;;4972918;28;20239;-65
2023/03/25 03:02:10;;;;;;;3.17;2.00;;;11.30;99.90;;;;;;4972866;28;20210;-65
2023/03/25 03:04:49;;;;;;;2.20;2.00;;;11.40;99.90;;;;;;4954403;28;20282;-65
2023/03/25 03:07:23;;;;;;;3.40;2.10;;;11.40;99.90;;;;;;4955506;28;20208;-65
2023/03/25 03:09:59;;;;;;;5.17;1.77;;;11.40;99.90;;;;;;4953676;28;20228;-65
2023/03/25 03:12:39;;;;;;;2.50;1.90;;;11.40;99.90;;;;;;4971923;28;20203;-65
2023/03/25 03:15:19;;;;;;;2.07;1.90;;;11.50;99.90;;;;;;4971959;28;20203;-66
2023/03/25 03:17:52;;;;;;;1.80;1.70;;;11.50;99.90;;;;;;4972561;28;20279;-65
2023/03/25 03:20:32;;;;;;;2.27;1.60;;;11.60;99.90;;;;;;4972355;28;20574;-65
2023/03/25 03:23:05;;;;;;;1.70;1.60;;;11.60;99.90;;;;;;4971519;28;20211;-65
2023/03/25 03:25:36;;;;;;;2.73;2.00;;;11.60;99.90;;;;;;4963642;28;20566;-65
2023/03/25 03:28:07;;;;;;;2.07;1.87;;;11.60;99.90;;;;;;4972222;28;20201;-66
2023/03/25 03:30:43;;;;;;;1.70;1.60;;;11.70;99.90;;;;;;4965970;28;20200;-66
2023/03/25 03:33:16;;;;;;;2.27;1.63;;;11.70;99.90;;;;;;4972251;28;20223;-65
2023/03/25 03:35:49;;;;;;;1.70;1.60;;;11.70;99.90;;;;;;4969567;28;20204;-65
2023/03/25 03:38:19;;;;;;;1.60;1.50;;;11.70;99.90;;;;;;4967444;28;20277;-64
2023/03/25 03:40:52;;;;;;;1.90;1.70;;;11.70;99.90;;;;;;4972039;28;20198;-66
2023/03/25 03:43:26;;;;;;;4.20;2.17;;;11.70;99.90;;;;;;4962023;28;20673;-64
2023/03/25 03:45:58;;;;;;;2.43;1.60;;;11.70;99.90;;;;;;4955029;28;20207;-65
2023/03/25 03:48:29;;;;;;;2.10;1.90;;;11.80;99.90;;;;;;4970739;28;20193;-65
2023/03/25 03:51:03;;;;;;;1.63;1.53;;;11.80;99.90;;;;;;4969348;28;20200;-66
2023/03/25 03:53:36;;;;;;;2.30;1.90;;;11.80;99.90;;;;;;4969879;28;20282;-65
2023/03/25 03:56:11;;;;;;;1.83;1.70;;;11.70;99.90;;;;;;4969396;28;20662;-65
2023/03/25 03:58:41;;;;;;;3.40;1.40;;;11.70;99.90;;;;;;4968979;28;20196;-66
2023/03/25 04:01:13;;;;;;;3.30;1.80;;;11.70;99.90;;;;;;4969642;28;20201;-66
2023/03/25 04:03:47;;;;;;;1.83;1.57;;;11.70;99.90;;;;;;4953004;28;20232;-65
2023/03/25 04:06:20;;;;;;;2.17;1.90;;;11.80;99.90;;;;;;4971310;28;20224;-66
2023/03/25 04:08:57;;;;;;;3.37;1.80;;;11.70;99.90;;;;;;4968526;28;20243;-66
2023/03/25 04:11:30;;;;;;;1.60;1.50;;;11.70;99.90;;;;;;4968186;28;20212;-66
2023/03/25 04:14:00;;;;;;;2.60;1.67;;;11.70;99.90;;;;;;4953640;28;20201;-66
2023/03/25 04:16:28;;;;;;;1.60;1.50;;;11.80;99.90;;;;;;4968956;28;20193;-64
2023/03/25 04:18:57;;;;;;;1.57;1.30;;;11.70;99.90;;;;;;4949188;28;20262;-65
2023/03/25 04:21:24;;;;;;;1.53;1.43;;;11.70;99.90;;;;;;4962418;28;20205;-65
2023/03/25 04:23:52;;;;;;;2.70;1.50;;;11.70;99.90;;;;;;4966113;28;20197;-65
2023/03/25 04:26:20;;;;;;;1.77;1.67;;;11.70;99.90;;;;;;4965332;28;20192;-65
2023/03/25 04:28:49;;;;;;;1.97;1.43;;;11.70;99.90;;;;;;4968044;28;20204;-65
2023/03/25 04:31:17;;;;;;;1.30;1.20;;;11.80;99.90;;;;;;4949940;28;20594;-66
2023/03/25 04:33:47;;;;;;;2.30;1.57;;;11.80;99.90;;;;;;4962765;28;20210;-66
2023/03/25 04:36:14;;;;;;;1.47;1.30;;;11.80;99.90;;;;;;4967517;28;20251;-65
2023/03/25 04:38:44;;;;;;;1.70;1.60;;;11.80;99.90;;;;;;4971359;28;20208;-65
2023/03/25 04:41:12;;;;;;;2.20;1.57;;;11.70;99.90;;;;;;4953693;28;20575;-65
2023/03/25 04:43:40;;;;;;;2.73;2.13;;;11.70;99.90;;;;;;4946627;28;20698;-66
2023/03/25 04:46:12;;;;;;;2.33;2.13;;;11.70;99.90;;;;;;4956344;28;20563;-65
2023/03/25 04:48:44;;;;;;;3.73;2.37;;;11.70;99.90;;;;;;4968836;28;20192;-65
2023/03/25 04:51:12;;;;;;;2.87;2.33;;;11.70;99.90;;;;;;4967684;28;20197;-66
2023/03/25 04:53:39;;;;;;;3.97;2.47;;;11.60;99.90;;;;;;4968489;28;20197;-64
2023/03/25 04:56:14;;;;;;;2.93;2.30;;;11.60;99.90;;;;;;4968521;28;20539;-65
2023/03/25 04:58:42;;;;;;;3.80;2.73;;;11.60;99.90;;;;;;4970550;28;20188;-66
2023/03/25 05:01:19;;;;;;;6.87;3.30;;;11.50;99.90;;;;;;4952099;28;20205;-65
2023/03/25 05:03:49;;;;;;;3.37;2.57;;;11.50;99.90;;;;;;4969441;28;20718;-65
2023/03/25 05:06:16;;;;;;;2.97;2.30;;;11.50;99.90;;;;;;4968449;28;20206;-65
2023/03/25 05:08:44;;;;;;;6.33;2.50;;;11.50;99.90;;;;;;4970218;28;20254;-64
2023/03/25 05:11:11;;;;;;;8.60;3.63;;;11.50;99.90;;;;;;4966063;28;20200;-65
2023/03/25 05:13:38;;;;;;;6.27;4.27;;;11.50;99.90;;;;;;4958890;28;20206;-66
2023/03/25 05:16:06;;;;;;;6.60;4.50;;;11.40;99.90;;;;;;4968085;28;20252;-65
2023/03/25 05:18:34;;;;;;;9.73;5.13;;;11.40;99.90;;;;;;4953241;28;20197;-65
2023/03/25 05:21:01;;;;;;;12.83;6.43;;;11.40;99.90;;;;;;4966328;28;20211;-65
2023/03/25 05:23:30;;;;;;;12.33;7.03;;;11.30;99.90;;;;;;4969323;28;20211;-64
2023/03/25 05:25:57;;;;;;;13.10;6.23;;;11.20;99.90;;;;;;4940632;29;20205;-64
2023/03/25 05:28:24;;;;;;;9.57;5.93;;;11.20;99.90;;;;;;4965894;28;20720;-64
2023/03/25 05:30:51;;;;;;;7.13;5.07;;;11.10;99.90;;;;;;4970736;28;20567;-64
2023/03/25 05:33:19;;;;;;;5.20;3.83;;;11.10;99.90;;;;;;4968582;28;20209;-64
2023/03/25 05:35:48;;;;;;;3.80;3.30;;;11.10;99.90;;;;;;4948366;28;20255;-65
2023/03/25 05:38:17;;;;;;;5.03;3.73;;;11.20;99.90;;;;;;4967275;28;20291;-65
2023/03/25 05:40:45;;;;;;;7.43;4.77;;;11.20;99.90;;;;;;4962891;28;20678;-65
2023/03/25 05:43:13;;;;;;;6.47;4.10;;;11.20;99.90;;;;;;4947366;28;20667;-65
2023/03/25 05:45:41;;;;;;;7.37;3.90;;;11.20;99.90;;;;;;4968394;28;20211;-65
2023/03/25 05:48:08;;;;;;;8.23;3.60;;;11.20;99.90;;;;;;4972747;28;20196;-67
2023/03/25 05:50:36;;;;;;;3.33;3.03;;;11.20;99.90;;;;;;4975947;28;20238;-65
2023/03/25 05:53:05;;;;;;;5.33;3.30;;;11.20;99.90;;;;;;4972462;28;20200;-65
2023/03/25 05:55:32;;;;;;;4.70;3.50;;;11.20;99.90;;;;;;4956154;28;20252;-65
2023/03/25 05:58:00;;;;;;;6.43;3.80;;;11.20;99.90;;;;;;4971462;28;20203;-65
2023/03/25 06:00:29;;;;;;;6.33;3.77;;;11.20;99.90;;;;;;4956956;28;20277;-65
2023/03/25 06:02:57;;;;;;;5.60;4.03;;;11.20;99.90;;;;;;4969071;28;20669;-66
2023/03/25 06:05:25;;;;;;;6.57;4.23;;;11.20;99.90;;;;;;4963648;28;20199;-65
2023/03/25 06:07:54;;;;;;;4.83;3.60;;;11.10;99.90;;;;;;4967914;28;20202;-65
2023/03/25 06:10:23;;;;;;;4.30;3.27;;;11.10;99.90;;;;;;4966376;28;20209;-65
2023/03/25 06:12:51;;;;;;;6.17;3.40;;;11.10;99.90;;;;;;4965539;28;20205;-66
2023/03/25 06:15:27;;;;;;;3.57;2.80;;;11.10;99.90;;;;;;4966335;28;20847;-65
2023/03/25 06:17:55;;;;;;;5.80;3.80;;;11.20;99.90;;;;;;4972806;28;20226;-65
2023/03/25 06:20:22;;;;;;;6.23;3.77;;;11.20;99.90;;;;;;4969213;28;20193;-66
2023/03/25 06:22:51;;;;;;;5.00;3.60;;;11.20;99.90;;;;;;4970029;28;20222;-65
2023/03/25 06:25:20;;;;;;;6.23;3.43;;;11.30;99.90;;;;;;4963796;28;20216;-66
2023/03/25 06:27:51;;;;;;;5.50;3.77;;;11.40;99.90;;;;;;4966199;28;20226;-65
2023/03/25 06:30:20;;;;;;;4.80;3.40;;;11.50;99.90;;;;;;4972862;28;20202;-66
2023/03/25 06:32:49;;;;;;;7.30;3.30;;;11.70;99.90;;;;;;4966250;28;20279;-65
2023/03/25 06:35:18;;;;;;;5.37;2.97;;;11.80;99.90;;;;;;4950710;28;20288;-65
2023/03/25 06:37:47;;;;;;;3.27;2.67;;;11.90;99.90;;;;;;4970395;28;20205;-66
2023/03/25 06:40:21;;;;;;;2.47;2.27;;;12.00;99.90;;;;;;4948443;28;20196;-66
2023/03/25 06:42:50;;;;;;;2.93;2.47;;;12.20;99.90;;;;;;4952883;28;20224;-66
2023/03/25 06:45:35;;;;;;;1.80;1.70;;;12.20;99.90;;;;;;4966589;28;20277;-66
2023/03/25 06:48:08;;;;;;;2.60;2.40;;;12.30;99.90;;;;;;4953240;28;20283;-66
2023/03/25 06:50:35;;;;;;;3.40;2.07;;;12.30;99.90;;;;;;4969196;28;20216;-65
2023/03/25 06:53:06;;;;;;;2.40;1.90;;;12.40;99.90;;;;;;4971506;28;20243;-67
2023/03/25 06:55:33;;;;;;;4.97;2.63;;;12.40;99.90;;;;;;4972991;28;20542;-66
2023/03/25 06:58:01;;;;;;;4.03;2.80;;;12.50;99.90;;;;;;4971648;28;20208;-65
2023/03/25 07:00:28;;;;;;;2.67;2.40;;;12.50;99.90;;;;;;4954760;28;20323;-66
2023/03/25 07:02:57;;;;;;;2.27;2.07;;;12.60;99.90;;;;;;4954985;28;20242;-65
2023/03/25 07:05:24;;;;;;;2.83;2.33;;;12.60;99.90;;;;;;4974741;28;20654;-66
2023/03/25 07:07:53;;;;;;;2.50;2.30;;;12.70;99.90;;;;;;4970037;28;20198;-65
2023/03/25 07:10:20;;;;;;;3.67;2.47;;;12.70;99.90;;;;;;4966023;28;20210;-66
2023/03/25 07:12:47;;;;;;;2.67;2.10;;;12.80;99.90;;;;;;4971135;28;20784;-65
2023/03/25 07:15:16;;;;;;;2.40;2.07;;;12.90;99.90;;;;;;4967509;28;20666;-65
2023/03/25 07:17:48;;;;;;;2.57;2.13;;;12.90;99.90;;;;;;4949798;28;20221;-65
2023/03/25 07:20:15;;;;;;;2.13;1.93;;;13.10;99.90;;;;;;4970610;28;20203;-65
2023/03/25 07:22:42;;;;;;;3.70;2.07;;;13.10;99.90;;;;;;4967245;28;20265;-65
2023/03/25 07:25:10;;;;;;;3.27;2.13;;;13.30;99.90;;;;;;4965369;28;20650;-66
2023/03/25 07:27:37;;;;;;;2.87;2.00;;;13.40;99.90;;;;;;4959033;28;20691;-65
2023/03/25 07:30:12;;;;;;;1.63;1.53;;;13.40;99.90;;;;;;4955627;28;20771;-65
2023/03/25 07:32:44;;;;;;;2.47;1.90;;;13.50;99.90;;;;;;4953435;28;20302;-65
2023/03/25 07:35:13;;;;;;;3.40;2.00;;;13.50;99.90;;;;;;4972518;28;20217;-65
2023/03/25 07:37:43;;;;;;;2.63;1.57;;;13.60;99.90;;;;;;4966245;28;20210;-66
2023/03/25 07:40:13;;;;;;;2.10;1.67;;;13.60;99.90;;;;;;4965877;28;20208;-66
2023/03/25 07:42:40;;;;;;;1.87;1.30;;;13.70;99.90;;;;;;4964989;28;20549;-66
2023/03/25 07:45:21;;;;;;;2.33;1.63;;;13.70;99.90;;;;;;4950495;28;20207;-64
2023/03/25 07:47:55;;;;;;;4.00;1.80;;;13.80;99.90;;;;;;4962265;28;20207;-66
2023/03/25 07:50:23;;;;;;;3.57;1.87;;;13.80;99.90;;;;;;4970243;28;20314;-65
2023/03/25 07:52:54;;;;;;;2.33;1.77;;;13.80;99.90;;;;;;4970788;28;20568;-65
2023/03/25 07:55:21;;;;;;;2.00;1.60;;;13.90;99.90;;;;;;4971079;28;20198;-65
2023/03/25 07:57:48;;;;;;;3.77;2.00;;;14.00;99.90;;;;;;4969786;28;20195;-66
2023/03/25 08:00:15;;;;;;;1.77;1.63;;;14.00;99.90;;;;;;4954337;28;20700;-66
2023/03/25 08:02:43;;;;;;;1.70;1.60;;;14.20;99.90;;;;;;4972576;28;20314;-66
2023/03/25 08:05:20;;;;;;;1.77;1.67;;;14.20;99.90;;;;;;4970010;28;20274;-65
2023/03/25 08:07:47;;;;;;;1.67;1.57;;;14.30;99.90;;;;;;4968740;28;20202;-66
2023/03/25 08:10:15;;;;;;;1.43;1.30;;;14.40;99.90;;;;;;4965639;28;20238;-66
2023/03/25 08:12:42;;;;;;;2.40;1.30;;;14.60;99.90;;;;;;4952272;28;20745;-66
2023/03/25 08:15:10;;;;;;;2.10;1.67;;;14.90;99.90;;;;;;4970418;28;20302;-66
2023/03/25 08:17:38;;;;;;;2.23;1.33;;;15.40;99.90;;;;;;4970358;28;20224;-65
2023/03/25 08:20:06;;;;;;;2.10;1.50;;;15.90;99.60;;;;;;4970732;28;20204;-66
2023/03/25 08:22:35;;;;;;;1.77;1.60;;;16.50;99.10;;;;;;4968904;28;20217;-65
2023/03/25 08:25:02;;;;;;;2.13;1.43;;;16.80;98.10;;;;;;4969857;28;20224;-64
2023/03/25 08:27:29;;;;;;;2.30;1.80;;;17.00;97.40;;;;;;4969363;28;20233;-65
2023/03/25 08:29:58;;;;;;;1.63;1.47;;;17.00;96.80;;;;;;4972001;28;20244;-66
2023/03/25 08:32:26;;;;;;;1.60;1.50;;;17.00;96.50;;;;;;4965844;28;20196;-65
2023/03/25 08:34:54;;;;;;;2.13;1.40;;;17.10;96.80;;;;;;4952183;28;20209;-65
2023/03/25 08:37:22;;;;;;;1.73;1.40;;;17.00;96.10;;;;;;4964250;28;20205;-65
2023/03/25 08:39:54;;;;;;;2.93;2.17;;;16.90;96.10;;;;;;4969140;28;20639;-65
2023/03/25 08:42:23;;;;;;;3.07;2.07;;;16.70;95.80;;;;;;4950105;28;20745;-69
2023/03/25 08:44:50;;;;;;;1.80;1.57;;;16.60;96.00;;;;;;4952554;28;20228;-64
2023/03/25 08:47:17;;;;;;;1.93;1.50;;;16.60;96.20;;;;;;4970437;28;20658;-64
2023/03/25 08:49:44;;;;;;;1.70;1.60;;;16.70;96.10;;;;;;4963705;28;20204;-65
2023/03/25 08:52:12;;;;;;;3.70;2.60;;;16.80;96.00;;;;;;4963730;28;20201;-65
2023/03/25 08:54:39;;;;;;;2.93;2.00;;;17.00;95.50;;;;;;4967134;28;20207;-64
2023/03/25 08:57:07;;;;;;;1.93;1.80;;;17.20;95.30;;;;;;4966281;28;20615;-65
2023/03/25 08:59:34;;;;;;;2.73;2.27;;;17.10;94.90;;;;;;4964351;28;20670;-65
2023/03/25 09:02:02;;;;;;;2.33;1.80;;;16.90;94.70;;;;;;4969989;28;20362;-66
2023/03/25 09:04:30;;;;;;;2.83;2.20;;;16.60;94.90;;;;;;4968248;28;20303;-65
2023/03/25 09:06:57;;;;;;;2.67;2.00;;;16.40;94.90;;;;;;4959277;28;20594;-65
2023/03/25 09:09:25;;;;;;;1.97;1.77;;;16.30;95.10;;;;;;4961773;28;20547;-64
2023/03/25 09:11:52;;;;;;;2.63;2.17;;;16.10;95.10;;;;;;4954711;28;20286;-66
2023/03/25 09:14:20;;;;;;;6.07;2.13;;;16.00;95.30;;;;;;4947056;28;20644;-65
2023/03/25 09:16:47;;;;;;;2.43;1.90;;;15.90;95.40;;;;;;4961670;28;20197;-64
2023/03/25 09:19:15;;;;;;;1.60;1.50;;;15.80;95.40;;;;;;4961731;28;20685;-65
2023/03/25 09:21:42;;;;;;;1.70;1.60;;;15.70;95.50;;;;;;4965302;28;20205;-65
2023/03/25 09:24:11;;;;;;;3.43;2.30;;;15.70;95.60;;;;;;4967663;28;20201;-65
2023/03/25 09:26:38;;;;;;;3.20;2.10;;;15.60;95.60;;;;;;4970841;28;20197;-65
2023/03/25 09:29:05;;;;;;;2.30;2.10;;;15.50;95.70;;;;;;4968397;28;20219;-65
2023/03/25 09:31:34;;;;;;;2.60;1.83;;;15.40;95.60;;;;;;4971487;28;20204;-63
2023/03/25 09:34:01;;;;;;;3.23;2.00;;;15.40;95.80;;;;;;4946654;28;20615;-64
2023/03/25 09:36:28;;;;;;;5.40;2.07;;;15.40;95.80;;;;;;4965866;28;20200;-63
2023/03/25 09:38:55;;;;;;;4.33;2.43;;;15.30;95.90;;;;;;4953616;28;20204;-64
2023/03/25 09:41:46;;;;;;;3.00;1.80;;;15.30;95.90;;;;;;4953705;28;20208;-63
